Anchorage, AK

2:33 AM AKST on March 01, 2015 (GMT -0900)
Lake Hood | Change Station
CLOSE
Current Station
Airport
Location: Lake Hood,
Elevation: 72 ft
Nearby Weather Stations
Active Advisory: Dense Fog Advisory

Elev 72 ft 61.18 °N, 149.96 °W | Updated 12 minutes ago

Light Freezing Fog
Freezing Fog
28 °F
Feels Like 25 °F
N
4
Wind Variable Wind from NW

Today
High -- | Low -- °F
--% Chance of Precip.
Yesterday
High -- | Low -- °F
Precip. -- in
8:00 AM 6:24 PM
Waxing Gibbous, 84% visible
Pressure 30.49 in
Visibility 0.2 miles
Clouds
Windchill 25 °F
Dew Point 27 °F
Humidity 93%
Rainfall 0.00 in
Snow Depth Not available.
UV Not available.
Pollen Not available.
Air Quality Not available.
Flu Activity Not available.
SPECI PALH 011121Z 32003KT 1/4SM FZFG VV002 M02/M03 A3049 RMK AO2

More Conditions Fewer Conditions

Pressure 30.49 in
Visibility 0.2 miles
Clouds
Windchill 25 °F
Dew Point 27 °F
Humidity 93%
Rainfall 0.00 in
Snow Depth Not available.
UV Not available.
Pollen Not available.
Air Quality Not available.
Flu Activity Not available.
SPECI PALH 011121Z 32003KT 1/4SM FZFG VV002 M02/M03 A3049 RMK AO2

More Conditions Fewer Conditions

10-Day Weather Forecast

Almanac

Astronomy

Mar. 01, 2015 Rise Set
Actual Time
Civil Twilight
Nautical Twilight
Astronomical Twilight
Moon
Length of Visible Light
Length of Day
Tomorrow will be .
, % of the Moon is Illuminated

Today's Extremes

State Highs State Lows

Community

WunderPhotos

Upload Photos

1,801,364 photos uploaded!

WunderBlogs® & News

Nearby

Air Quality

  Air Quality AQ Index Pollutant
Not available.

Snow Depth

Station Depth Elevation

Earthquake Activity

City Distance Mag. Time & Date
Minimum magnitude displayed is 2.5.

Coastal Water Temperatures

Place Temperature

Nearby Weather Stations

Dense Fog Advisory
Statement as of 11:57 PM AKST on February 28, 2015

... Dense fog advisory in effect until noon akst Sunday...

The National Weather Service in Anchorage has issued a dense fog
advisory... which is in effect until noon akst Sunday.

* Visibility... reduced below one quarter mile at times.

* Timing... until midday Sunday.

* Impacts... reduced visibilities and slippery roads will make
travel very difficult.

Precautionary/preparedness actions...

A dense fog advisory means visibilities will frequently be
reduced to less than one quarter mile. If driving... slow down...
use your headlights... and leave plenty of distance ahead of you.